sensor_id;sensor_type;location;lat;lon;timestamp;temperature;humidity
46976;DHT22;32724;51.094;6.996;2022-07-18T00:01:55;18.60;99.90
46976;DHT22;32724;51.094;6.996;2022-07-18T00:04:20;18.60;99.90
46976;DHT22;32724;51.094;6.996;2022-07-18T00:06:46;18.60;99.90
46976;DHT22;32724;51.094;6.996;2022-07-18T00:09:11;18.50;99.90
46976;DHT22;32724;51.094;6.996;2022-07-18T00:11:36;18.50;99.90
46976;DHT22;32724;51.094;6.996;2022-07-18T00:14:02;18.50;99.90
46976;DHT22;32724;51.094;6.996;2022-07-18T00:16:27;18.40;99.90
46976;DHT22;32724;51.094;6.996;2022-07-18T00:18:54;18.30;99.90
46976;DHT22;32724;51.094;6.996;2022-07-18T00:21:20;18.20;99.90
46976;DHT22;32724;51.094;6.996;2022-07-18T00:23:45;18.10;99.90
46976;DHT22;32724;51.094;6.996;2022-07-18T00:26:11;17.90;99.90
46976;DHT22;32724;51.094;6.996;2022-07-18T00:28:36;17.90;99.90
46976;DHT22;32724;51.094;6.996;2022-07-18T00:31:02;17.90;99.90
46976;DHT22;32724;51.094;6.996;2022-07-18T00:33:27;17.90;99.90
46976;DHT22;32724;51.094;6.996;2022-07-18T00:35:53;17.90;99.90
46976;DHT22;32724;51.094;6.996;2022-07-18T00:38:18;17.80;99.90
46976;DHT22;32724;51.094;6.996;2022-07-18T00:40:44;17.70;99.90
46976;DHT22;32724;51.094;6.996;2022-07-18T00:43:12;17.50;99.90
46976;DHT22;32724;51.094;6.996;2022-07-18T00:45:38;17.30;99.90
46976;DHT22;32724;51.094;6.996;2022-07-18T00:48:06;17.20;99.90
46976;DHT22;32724;51.094;6.996;2022-07-18T00:50:32;17.10;99.90
46976;DHT22;32724;51.094;6.996;2022-07-18T00:52:57;17.00;99.90
46976;DHT22;32724;51.094;6.996;2022-07-18T00:55:22;16.90;99.90
46976;DHT22;32724;51.094;6.996;2022-07-18T00:57:48;16.80;99.90
46976;DHT22;32724;51.094;6.996;2022-07-18T01:00:14;16.70;99.90
46976;DHT22;32724;51.094;6.996;2022-07-18T01:02:58;16.60;99.90
46976;DHT22;32724;51.094;6.996;2022-07-18T01:05:24;16.50;99.90
46976;DHT22;32724;51.094;6.996;2022-07-18T01:07:50;16.40;99.90
46976;DHT22;32724;51.094;6.996;2022-07-18T01:10:16;16.30;99.90
46976;DHT22;32724;51.094;6.996;2022-07-18T01:12:43;16.30;99.90
46976;DHT22;32724;51.094;6.996;2022-07-18T01:15:09;16.30;99.90
46976;DHT22;32724;51.094;6.996;2022-07-18T01:17:34;16.20;99.90
46976;DHT22;32724;51.094;6.996;2022-07-18T01:20:00;16.20;99.90
46976;DHT22;32724;51.094;6.996;2022-07-18T01:22:25;16.10;99.90
46976;DHT22;32724;51.094;6.996;2022-07-18T01:24:51;16.10;99.90
46976;DHT22;32724;51.094;6.996;2022-07-18T01:27:17;16.10;99.90
46976;DHT22;32724;51.094;6.996;2022-07-18T01:29:43;16.00;99.90
46976;DHT22;32724;51.094;6.996;2022-07-18T01:32:09;16.00;99.90
46976;DHT22;32724;51.094;6.996;2022-07-18T01:34:35;16.00;99.90
46976;DHT22;32724;51.094;6.996;2022-07-18T01:37:01;16.00;99.90
46976;DHT22;32724;51.094;6.996;2022-07-18T01:39:26;16.00;99.90
46976;DHT22;32724;51.094;6.996;2022-07-18T01:41:59;15.90;99.90
46976;DHT22;32724;51.094;6.996;2022-07-18T01:44:25;15.90;99.90
46976;DHT22;32724;51.094;6.996;2022-07-18T01:46:51;15.80;99.90
46976;DHT22;32724;51.094;6.996;2022-07-18T01:49:17;15.80;99.90
46976;DHT22;32724;51.094;6.996;2022-07-18T01:51:46;15.80;99.90
46976;DHT22;32724;51.094;6.996;2022-07-18T01:54:11;15.70;99.90
46976;DHT22;32724;51.094;6.996;2022-07-18T01:56:37;15.70;99.90
46976;DHT22;32724;51.094;6.996;2022-07-18T01:59:02;15.60;99.90
46976;DHT22;32724;51.094;6.996;2022-07-18T02:01:28;15.60;99.90
46976;DHT22;32724;51.094;6.996;2022-07-18T02:03:53;15.60;99.90
46976;DHT22;32724;51.094;6.996;2022-07-18T02:06:19;15.50;99.90
46976;DHT22;32724;51.094;6.996;2022-07-18T02:08:44;15.50;99.90
46976;DHT22;32724;51.094;6.996;2022-07-18T02:11:10;15.40;99.90
46976;DHT22;32724;51.094;6.996;2022-07-18T02:13:35;15.40;99.90
46976;DHT22;32724;51.094;6.996;2022-07-18T02:16:01;15.30;99.90
46976;DHT22;32724;51.094;6.996;2022-07-18T02:18:26;15.30;99.90
46976;DHT22;32724;51.094;6.996;2022-07-18T02:20:52;15.30;99.90
46976;DHT22;32724;51.094;6.996;2022-07-18T02:23:17;15.20;99.90
46976;DHT22;32724;51.094;6.996;2022-07-18T02:25:43;15.20;99.90
46976;DHT22;32724;51.094;6.996;2022-07-18T02:28:08;15.10;99.90
46976;DHT22;32724;51.094;6.996;2022-07-18T02:30:34;15.10;99.90
46976;DHT22;32724;51.094;6.996;2022-07-18T02:32:59;15.00;99.90
46976;DHT22;32724;51.094;6.996;2022-07-18T02:35:25;15.00;99.90
46976;DHT22;32724;51.094;6.996;2022-07-18T02:37:50;15.00;99.90
46976;DHT22;32724;51.094;6.996;2022-07-18T02:40:16;14.90;99.90
46976;DHT22;32724;51.094;6.996;2022-07-18T02:42:41;14.90;99.90
46976;DHT22;32724;51.094;6.996;2022-07-18T02:45:07;14.80;99.90
46976;DHT22;32724;51.094;6.996;2022-07-18T02:47:33;14.80;99.90
46976;DHT22;32724;51.094;6.996;2022-07-18T02:49:58;14.70;99.90
46976;DHT22;32724;51.094;6.996;2022-07-18T02:52:24;14.70;99.90
46976;DHT22;32724;51.094;6.996;2022-07-18T02:54:49;14.70;99.90
46976;DHT22;32724;51.094;6.996;2022-07-18T02:57:15;14.60;99.90
46976;DHT22;32724;51.094;6.996;2022-07-18T02:59:40;14.60;99.90
46976;DHT22;32724;51.094;6.996;2022-07-18T03:02:06;14.50;99.90
46976;DHT22;32724;51.094;6.996;2022-07-18T03:04:31;14.50;99.90
46976;DHT22;32724;51.094;6.996;2022-07-18T03:06:57;14.50;99.90
46976;DHT22;32724;51.094;6.996;2022-07-18T03:09:23;14.50;99.90
46976;DHT22;32724;51.094;6.996;2022-07-18T03:11:52;14.50;99.90
46976;DHT22;32724;51.094;6.996;2022-07-18T03:14:18;14.50;99.90
46976;DHT22;32724;51.094;6.996;2022-07-18T03:16:43;14.50;99.90
46976;DHT22;32724;51.094;6.996;2022-07-18T03:19:09;14.50;99.90
46976;DHT22;32724;51.094;6.996;2022-07-18T03:21:34;14.50;99.90
46976;DHT22;32724;51.094;6.996;2022-07-18T03:24:00;14.40;99.90
46976;DHT22;32724;51.094;6.996;2022-07-18T03:26:25;14.40;99.90
46976;DHT22;32724;51.094;6.996;2022-07-18T03:28:50;14.30;99.90
46976;DHT22;32724;51.094;6.996;2022-07-18T03:31:16;14.30;99.90
46976;DHT22;32724;51.094;6.996;2022-07-18T03:33:42;14.30;99.90
46976;DHT22;32724;51.094;6.996;2022-07-18T03:36:07;14.20;99.90
46976;DHT22;32724;51.094;6.996;2022-07-18T03:38:33;14.20;99.90
46976;DHT22;32724;51.094;6.996;2022-07-18T03:40:58;14.10;99.90
46976;DHT22;32724;51.094;6.996;2022-07-18T03:43:24;14.00;99.90
46976;DHT22;32724;51.094;6.996;2022-07-18T03:45:49;13.90;99.90
46976;DHT22;32724;51.094;6.996;2022-07-18T03:48:15;13.90;99.90
46976;DHT22;32724;51.094;6.996;2022-07-18T03:50:40;14.00;99.90
46976;DHT22;32724;51.094;6.996;2022-07-18T03:53:06;14.00;99.90
46976;DHT22;32724;51.094;6.996;2022-07-18T03:55:31;14.10;99.90
46976;DHT22;32724;51.094;6.996;2022-07-18T03:57:57;14.10;99.90
46976;DHT22;32724;51.094;6.996;2022-07-18T04:00:22;14.10;99.90
46976;DHT22;32724;51.094;6.996;2022-07-18T04:02:48;14.20;99.90
46976;DHT22;32724;51.094;6.996;2022-07-18T04:05:14;14.20;99.90
46976;DHT22;32724;51.094;6.996;2022-07-18T04:07:40;14.30;99.90
46976;DHT22;32724;51.094;6.996;2022-07-18T04:10:06;14.40;99.90
46976;DHT22;32724;51.094;6.996;2022-07-18T04:12:32;14.40;99.90
46976;DHT22;32724;51.094;6.996;2022-07-18T04:14:58;14.40;99.90
46976;DHT22;32724;51.094;6.996;2022-07-18T04:17:23;14.00;99.90
46976;DHT22;32724;51.094;6.996;2022-07-18T04:19:49;13.70;99.90
46976;DHT22;32724;51.094;6.996;2022-07-18T04:22:14;13.50;99.90
46976;DHT22;32724;51.094;6.996;2022-07-18T04:24:40;13.20;99.90
46976;DHT22;32724;51.094;6.996;2022-07-18T04:27:05;13.10;99.90
46976;DHT22;32724;51.094;6.996;2022-07-18T04:29:31;13.10;99.90
46976;DHT22;32724;51.094;6.996;2022-07-18T04:31:59;13.10;99.90
46976;DHT22;32724;51.094;6.996;2022-07-18T04:34:25;13.10;99.90
46976;DHT22;32724;51.094;6.996;2022-07-18T04:36:50;13.20;99.90
46976;DHT22;32724;51.094;6.996;2022-07-18T04:39:16;13.30;99.90
46976;DHT22;32724;51.094;6.996;2022-07-18T04:41:42;13.40;99.90
46976;DHT22;32724;51.094;6.996;2022-07-18T04:44:08;13.80;99.90
46976;DHT22;32724;51.094;6.996;2022-07-18T04:46:33;14.30;99.90
46976;DHT22;32724;51.094;6.996;2022-07-18T04:48:59;14.70;99.90
46976;DHT22;32724;51.094;6.996;2022-07-18T04:51:26;15.00;99.90
46976;DHT22;32724;51.094;6.996;2022-07-18T04:53:51;15.40;99.90
46976;DHT22;32724;51.094;6.996;2022-07-18T04:56:19;15.70;99.90
46976;DHT22;32724;51.094;6.996;2022-07-18T04:58:45;16.00;99.90
46976;DHT22;32724;51.094;6.996;2022-07-18T05:01:10;16.30;99.90
46976;DHT22;32724;51.094;6.996;2022-07-18T05:03:36;16.60;99.90
46976;DHT22;32724;51.094;6.996;2022-07-18T05:06:01;16.80;99.90
46976;DHT22;32724;51.094;6.996;2022-07-18T05:08:27;17.20;99.90
46976;DHT22;32724;51.094;6.996;2022-07-18T05:10:52;17.40;99.90
46976;DHT22;32724;51.094;6.996;2022-07-18T05:13:18;17.70;99.90
46976;DHT22;32724;51.094;6.996;2022-07-18T05:15:43;17.90;99.90
46976;DHT22;32724;51.094;6.996;2022-07-18T05:18:09;18.10;99.90
46976;DHT22;32724;51.094;6.996;2022-07-18T05:20:34;18.40;99.90
46976;DHT22;32724;51.094;6.996;2022-07-18T05:23:00;19.00;99.90
46976;DHT22;32724;51.094;6.996;2022-07-18T05:25:25;20.40;99.90
46976;DHT22;32724;51.094;6.996;2022-07-18T05:27:51;21.70;99.90
46976;DHT22;32724;51.094;6.996;2022-07-18T05:30:17;22.40;99.90
46976;DHT22;32724;51.094;6.996;2022-07-18T05:32:43;22.70;99.90
46976;DHT22;32724;51.094;6.996;2022-07-18T05:35:10;22.90;99.00
46976;DHT22;32724;51.094;6.996;2022-07-18T05:37:35;23.20;96.50
46976;DHT22;32724;51.094;6.996;2022-07-18T05:40:06;23.40;95.80
46976;DHT22;32724;51.094;6.996;2022-07-18T05:42:32;23.80;94.70
46976;DHT22;32724;51.094;6.996;2022-07-18T05:44:57;24.60;92.40
46976;DHT22;32724;51.094;6.996;2022-07-18T05:47:23;25.10;90.20
46976;DHT22;32724;51.094;6.996;2022-07-18T05:49:48;25.20;88.50
46976;DHT22;32724;51.094;6.996;2022-07-18T05:52:14;25.20;86.00
46976;DHT22;32724;51.094;6.996;2022-07-18T05:54:39;25.00;85.20
46976;DHT22;32724;51.094;6.996;2022-07-18T05:57:05;24.80;85.00
46976;DHT22;32724;51.094;6.996;2022-07-18T05:59:30;25.00;84.80
46976;DHT22;32724;51.094;6.996;2022-07-18T06:01:56;25.10;83.10
46976;DHT22;32724;51.094;6.996;2022-07-18T06:04:21;25.50;81.80
46976;DHT22;32724;51.094;6.996;2022-07-18T06:06:47;25.30;83.10
46976;DHT22;32724;51.094;6.996;2022-07-18T06:09:15;25.60;81.00
46976;DHT22;32724;51.094;6.996;2022-07-18T06:11:41;25.90;79.70
46976;DHT22;32724;51.094;6.996;2022-07-18T06:14:07;25.60;79.10
46976;DHT22;32724;51.094;6.996;2022-07-18T06:16:32;25.40;79.40
46976;DHT22;32724;51.094;6.996;2022-07-18T06:18:58;25.60;78.90
46976;DHT22;32724;51.094;6.996;2022-07-18T06:21:23;25.90;79.10
46976;DHT22;32724;51.094;6.996;2022-07-18T06:23:49;26.10;78.80
46976;DHT22;32724;51.094;6.996;2022-07-18T06:26:14;26.50;76.50
46976;DHT22;32724;51.094;6.996;2022-07-18T06:28:40;26.40;76.20
46976;DHT22;32724;51.094;6.996;2022-07-18T06:31:05;26.20;76.20
46976;DHT22;32724;51.094;6.996;2022-07-18T06:33:31;26.80;76.10
46976;DHT22;32724;51.094;6.996;2022-07-18T06:35:56;27.20;72.30
46976;DHT22;32724;51.094;6.996;2022-07-18T06:38:22;27.10;72.90
46976;DHT22;32724;51.094;6.996;2022-07-18T06:40:48;27.60;72.20
46976;DHT22;32724;51.094;6.996;2022-07-18T06:43:13;28.20;71.20
46976;DHT22;32724;51.094;6.996;2022-07-18T06:45:45;28.80;68.00
46976;DHT22;32724;51.094;6.996;2022-07-18T06:48:10;28.30;64.80
46976;DHT22;32724;51.094;6.996;2022-07-18T06:50:36;27.40;66.60
46976;DHT22;32724;51.094;6.996;2022-07-18T06:53:01;26.90;67.20
46976;DHT22;32724;51.094;6.996;2022-07-18T06:55:27;26.70;67.00
46976;DHT22;32724;51.094;6.996;2022-07-18T06:57:52;26.60;68.70
46976;DHT22;32724;51.094;6.996;2022-07-18T07:00:18;26.80;67.60
46976;DHT22;32724;51.094;6.996;2022-07-18T07:02:44;27.00;66.80
46976;DHT22;32724;51.094;6.996;2022-07-18T07:05:10;27.20;66.40
46976;DHT22;32724;51.094;6.996;2022-07-18T07:07:35;26.60;67.60
46976;DHT22;32724;51.094;6.996;2022-07-18T07:10:02;26.20;68.20
46976;DHT22;32724;51.094;6.996;2022-07-18T07:12:27;25.90;69.20
46976;DHT22;32724;51.094;6.996;2022-07-18T07:14:53;26.20;69.40
46976;DHT22;32724;51.094;6.996;2022-07-18T07:17:18;26.50;68.90
46976;DHT22;32724;51.094;6.996;2022-07-18T07:19:44;26.30;67.60
46976;DHT22;32724;51.094;6.996;2022-07-18T07:22:10;25.90;69.60
46976;DHT22;32724;51.094;6.996;2022-07-18T07:24:35;25.90;70.40
46976;DHT22;32724;51.094;6.996;2022-07-18T07:27:03;26.00;70.80
46976;DHT22;32724;51.094;6.996;2022-07-18T07:29:29;26.00;69.70
46976;DHT22;32724;51.094;6.996;2022-07-18T07:31:54;26.20;70.10
46976;DHT22;32724;51.094;6.996;2022-07-18T07:34:20;26.20;70.50
46976;DHT22;32724;51.094;6.996;2022-07-18T07:36:46;26.10;70.50
46976;DHT22;32724;51.094;6.996;2022-07-18T07:39:11;25.80;71.20
46976;DHT22;32724;51.094;6.996;2022-07-18T07:41:37;26.00;72.90
46976;DHT22;32724;51.094;6.996;2022-07-18T07:44:02;26.20;70.80
46976;DHT22;32724;51.094;6.996;2022-07-18T07:46:28;26.00;71.00
46976;DHT22;32724;51.094;6.996;2022-07-18T07:48:53;26.00;71.80
46976;DHT22;32724;51.094;6.996;2022-07-18T07:51:19;25.90;71.80
46976;DHT22;32724;51.094;6.996;2022-07-18T07:53:44;25.90;72.00
46976;DHT22;32724;51.094;6.996;2022-07-18T07:56:10;26.00;74.00
46976;DHT22;32724;51.094;6.996;2022-07-18T07:58:36;26.30;70.70
46976;DHT22;32724;51.094;6.996;2022-07-18T08:01:01;26.30;70.90
46976;DHT22;32724;51.094;6.996;2022-07-18T08:03:27;26.30;72.30
46976;DHT22;32724;51.094;6.996;2022-07-18T08:05:52;26.50;70.00
46976;DHT22;32724;51.094;6.996;2022-07-18T08:08:18;26.50;69.90
46976;DHT22;32724;51.094;6.996;2022-07-18T08:10:44;26.50;69.80
46976;DHT22;32724;51.094;6.996;2022-07-18T08:13:10;26.80;68.80
46976;DHT22;32724;51.094;6.996;2022-07-18T08:15:35;26.90;68.50
46976;DHT22;32724;51.094;6.996;2022-07-18T08:18:01;26.80;67.90
46976;DHT22;32724;51.094;6.996;2022-07-18T08:20:27;26.90;68.50
46976;DHT22;32724;51.094;6.996;2022-07-18T08:22:53;27.00;68.30
46976;DHT22;32724;51.094;6.996;2022-07-18T08:25:19;26.70;67.40
46976;DHT22;32724;51.094;6.996;2022-07-18T08:27:45;26.80;67.70
46976;DHT22;32724;51.094;6.996;2022-07-18T08:30:10;26.90;68.10
46976;DHT22;32724;51.094;6.996;2022-07-18T08:32:36;26.80;67.60
46976;DHT22;32724;51.094;6.996;2022-07-18T08:35:02;26.80;67.60
46976;DHT22;32724;51.094;6.996;2022-07-18T08:37:27;26.90;69.80
46976;DHT22;32724;51.094;6.996;2022-07-18T08:39:53;27.20;67.70
46976;DHT22;32724;51.094;6.996;2022-07-18T08:42:18;27.50;67.40
46976;DHT22;32724;51.094;6.996;2022-07-18T08:44:46;27.60;66.10
46976;DHT22;32724;51.094;6.996;2022-07-18T08:47:12;27.70;66.50
46976;DHT22;32724;51.094;6.996;2022-07-18T08:49:40;27.90;66.20
46976;DHT22;32724;51.094;6.996;2022-07-18T08:52:06;28.30;64.00
46976;DHT22;32724;51.094;6.996;2022-07-18T08:54:31;28.20;64.20
46976;DHT22;32724;51.094;6.996;2022-07-18T08:56:57;28.40;66.20
46976;DHT22;32724;51.094;6.996;2022-07-18T08:59:22;28.60;64.30
46976;DHT22;32724;51.094;6.996;2022-07-18T09:01:48;28.90;63.70
46976;DHT22;32724;51.094;6.996;2022-07-18T09:04:30;28.90;61.90
46976;DHT22;32724;51.094;6.996;2022-07-18T09:06:56;29.10;63.80
46976;DHT22;32724;51.094;6.996;2022-07-18T09:09:23;29.40;63.90
46976;DHT22;32724;51.094;6.996;2022-07-18T09:11:56;29.70;60.90
46976;DHT22;32724;51.094;6.996;2022-07-18T09:17:27;30.00;59.10
46976;DHT22;32724;51.094;6.996;2022-07-18T09:19:56;29.70;59.10
46976;DHT22;32724;51.094;6.996;2022-07-18T09:22:23;30.10;59.90
46976;DHT22;32724;51.094;6.996;2022-07-18T09:29:53;30.20;58.30
46976;DHT22;32724;51.094;6.996;2022-07-18T09:32:31;30.30;56.30
46976;DHT22;32724;51.094;6.996;2022-07-18T09:34:56;30.40;56.80
46976;DHT22;32724;51.094;6.996;2022-07-18T09:37:28;30.50;57.30
46976;DHT22;32724;51.094;6.996;2022-07-18T09:39:55;30.70;57.60
46976;DHT22;32724;51.094;6.996;2022-07-18T09:42:38;30.70;57.10
46976;DHT22;32724;51.094;6.996;2022-07-18T09:45:04;30.90;55.30
46976;DHT22;32724;51.094;6.996;2022-07-18T09:47:29;31.10;55.20
46976;DHT22;32724;51.094;6.996;2022-07-18T09:49:54;31.20;55.40
46976;DHT22;32724;51.094;6.996;2022-07-18T09:52:20;31.20;54.90
46976;DHT22;32724;51.094;6.996;2022-07-18T09:54:46;30.80;54.90
46976;DHT22;32724;51.094;6.996;2022-07-18T09:57:30;31.00;55.40
46976;DHT22;32724;51.094;6.996;2022-07-18T09:59:55;31.20;54.00
46976;DHT22;32724;51.094;6.996;2022-07-18T10:02:21;31.30;52.10
46976;DHT22;32724;51.094;6.996;2022-07-18T10:04:46;31.30;52.30
46976;DHT22;32724;51.094;6.996;2022-07-18T10:07:12;31.40;51.40
46976;DHT22;32724;51.094;6.996;2022-07-18T10:09:38;31.60;51.80
46976;DHT22;32724;51.094;6.996;2022-07-18T10:12:04;31.60;52.10
46976;DHT22;32724;51.094;6.996;2022-07-18T10:14:30;31.70;51.90
46976;DHT22;32724;51.094;6.996;2022-07-18T10:16:56;31.80;50.30
46976;DHT22;32724;51.094;6.996;2022-07-18T10:19:21;31.80;51.50
46976;DHT22;32724;51.094;6.996;2022-07-18T10:21:47;31.90;50.20
46976;DHT22;32724;51.094;6.996;2022-07-18T10:24:13;32.00;48.50
46976;DHT22;32724;51.094;6.996;2022-07-18T10:26:41;32.00;48.90
46976;DHT22;32724;51.094;6.996;2022-07-18T10:31:33;32.30;48.20
46976;DHT22;32724;51.094;6.996;2022-07-18T10:36:31;32.50;48.70
46976;DHT22;32724;51.094;6.996;2022-07-18T10:41:28;32.40;47.40
46976;DHT22;32724;51.094;6.996;2022-07-18T10:43:54;32.20;47.40
46976;DHT22;32724;51.094;6.996;2022-07-18T10:46:19;32.10;47.20
46976;DHT22;32724;51.094;6.996;2022-07-18T10:48:49;32.20;48.30
46976;DHT22;32724;51.094;6.996;2022-07-18T10:51:15;32.20;48.00
46976;DHT22;32724;51.094;6.996;2022-07-18T10:58:57;32.30;47.10
46976;DHT22;32724;51.094;6.996;2022-07-18T11:01:23;32.30;47.80
46976;DHT22;32724;51.094;6.996;2022-07-18T11:03:48;32.00;46.70
46976;DHT22;32724;51.094;6.996;2022-07-18T11:06:14;32.00;48.10
46976;DHT22;32724;51.094;6.996;2022-07-18T11:08:40;32.30;47.10
46976;DHT22;32724;51.094;6.996;2022-07-18T11:11:06;32.60;45.90
46976;DHT22;32724;51.094;6.996;2022-07-18T11:13:35;32.80;45.50
46976;DHT22;32724;51.094;6.996;2022-07-18T11:16:02;32.80;44.90
46976;DHT22;32724;51.094;6.996;2022-07-18T11:24:01;32.80;45.00
46976;DHT22;32724;51.094;6.996;2022-07-18T11:26:27;33.00;46.60
46976;DHT22;32724;51.094;6.996;2022-07-18T11:28:57;33.40;44.80
46976;DHT22;32724;51.094;6.996;2022-07-18T11:31:23;33.50;42.30
46976;DHT22;32724;51.094;6.996;2022-07-18T11:33:49;33.50;44.00
46976;DHT22;32724;51.094;6.996;2022-07-18T11:36:15;33.50;44.40
46976;DHT22;32724;51.094;6.996;2022-07-18T11:38:48;33.60;45.00
46976;DHT22;32724;51.094;6.996;2022-07-18T11:41:14;33.50;45.10
46976;DHT22;32724;51.094;6.996;2022-07-18T11:43:40;33.30;43.20
46976;DHT22;32724;51.094;6.996;2022-07-18T11:48:31;33.10;43.00
46976;DHT22;32724;51.094;6.996;2022-07-18T11:50:57;33.10;45.50
46976;DHT22;32724;51.094;6.996;2022-07-18T11:53:22;33.10;44.90
46976;DHT22;32724;51.094;6.996;2022-07-18T11:55:48;33.10;45.20
46976;DHT22;32724;51.094;6.996;2022-07-18T11:58:17;33.10;44.30
46976;DHT22;32724;51.094;6.996;2022-07-18T12:00:43;33.10;44.10
46976;DHT22;32724;51.094;6.996;2022-07-18T12:05:42;33.50;45.30
46976;DHT22;32724;51.094;6.996;2022-07-18T12:16:23;33.50;44.60
46976;DHT22;32724;51.094;6.996;2022-07-18T12:18:52;33.80;44.60
46976;DHT22;32724;51.094;6.996;2022-07-18T12:21:18;34.00;42.80
46976;DHT22;32724;51.094;6.996;2022-07-18T12:23:44;33.90;43.70
46976;DHT22;32724;51.094;6.996;2022-07-18T12:26:25;34.30;42.90
46976;DHT22;32724;51.094;6.996;2022-07-18T12:29:02;34.80;44.40
46976;DHT22;32724;51.094;6.996;2022-07-18T12:31:37;35.20;43.30
46976;DHT22;32724;51.094;6.996;2022-07-18T12:34:14;35.50;42.90
46976;DHT22;32724;51.094;6.996;2022-07-18T12:36:49;35.50;41.40
46976;DHT22;32724;51.094;6.996;2022-07-18T12:39:24;35.60;42.90
46976;DHT22;32724;51.094;6.996;2022-07-18T12:41:50;35.60;42.60
46976;DHT22;32724;51.094;6.996;2022-07-18T12:44:15;35.30;41.80
46976;DHT22;32724;51.094;6.996;2022-07-18T12:46:41;34.90;41.10
46976;DHT22;32724;51.094;6.996;2022-07-18T12:49:06;34.70;42.70
46976;DHT22;32724;51.094;6.996;2022-07-18T12:51:31;34.60;42.50
46976;DHT22;32724;51.094;6.996;2022-07-18T12:53:57;34.60;42.80
46976;DHT22;32724;51.094;6.996;2022-07-18T12:56:23;34.80;43.30
46976;DHT22;32724;51.094;6.996;2022-07-18T12:58:48;34.90;42.40
46976;DHT22;32724;51.094;6.996;2022-07-18T13:01:14;34.80;42.40
46976;DHT22;32724;51.094;6.996;2022-07-18T13:03:39;34.60;42.00
46976;DHT22;32724;51.094;6.996;2022-07-18T13:06:05;34.30;41.50
46976;DHT22;32724;51.094;6.996;2022-07-18T13:08:31;34.20;42.20
46976;DHT22;32724;51.094;6.996;2022-07-18T13:10:57;34.10;41.70
46976;DHT22;32724;51.094;6.996;2022-07-18T13:13:23;34.10;42.10
46976;DHT22;32724;51.094;6.996;2022-07-18T13:15:49;34.20;43.30
46976;DHT22;32724;51.094;6.996;2022-07-18T13:18:15;34.20;42.40
46976;DHT22;32724;51.094;6.996;2022-07-18T13:20:41;33.90;42.40
46976;DHT22;32724;51.094;6.996;2022-07-18T13:23:06;33.90;43.00
46976;DHT22;32724;51.094;6.996;2022-07-18T13:25:32;33.90;42.80
46976;DHT22;32724;51.094;6.996;2022-07-18T13:28:00;33.80;42.40
46976;DHT22;32724;51.094;6.996;2022-07-18T13:30:25;33.70;43.40
46976;DHT22;32724;51.094;6.996;2022-07-18T13:32:52;33.60;44.10
46976;DHT22;32724;51.094;6.996;2022-07-18T13:35:18;33.40;43.30
46976;DHT22;32724;51.094;6.996;2022-07-18T13:37:43;33.40;43.30
46976;DHT22;32724;51.094;6.996;2022-07-18T13:40:09;33.40;42.80
46976;DHT22;32724;51.094;6.996;2022-07-18T13:42:36;33.50;43.30
46976;DHT22;32724;51.094;6.996;2022-07-18T13:45:01;33.50;43.10
46976;DHT22;32724;51.094;6.996;2022-07-18T13:47:27;33.50;42.80
46976;DHT22;32724;51.094;6.996;2022-07-18T13:49:52;33.50;43.70
46976;DHT22;32724;51.094;6.996;2022-07-18T13:52:18;33.50;43.60
46976;DHT22;32724;51.094;6.996;2022-07-18T13:54:44;33.50;43.70
46976;DHT22;32724;51.094;6.996;2022-07-18T13:57:10;33.50;43.70
46976;DHT22;32724;51.094;6.996;2022-07-18T13:59:35;33.60;44.00
46976;DHT22;32724;51.094;6.996;2022-07-18T14:02:00;33.70;45.90
46976;DHT22;32724;51.094;6.996;2022-07-18T14:04:26;33.70;44.30
46976;DHT22;32724;51.094;6.996;2022-07-18T14:06:51;33.70;43.50
46976;DHT22;32724;51.094;6.996;2022-07-18T14:09:17;33.70;44.10
46976;DHT22;32724;51.094;6.996;2022-07-18T14:11:42;33.80;45.20
46976;DHT22;32724;51.094;6.996;2022-07-18T14:14:08;33.80;44.50
46976;DHT22;32724;51.094;6.996;2022-07-18T14:16:33;33.70;43.60
46976;DHT22;32724;51.094;6.996;2022-07-18T14:18:59;33.60;43.60
46976;DHT22;32724;51.094;6.996;2022-07-18T14:21:24;33.60;44.10
46976;DHT22;32724;51.094;6.996;2022-07-18T14:23:50;33.70;44.20
46976;DHT22;32724;51.094;6.996;2022-07-18T14:26:16;33.70;43.20
46976;DHT22;32724;51.094;6.996;2022-07-18T14:28:41;33.70;43.40
46976;DHT22;32724;51.094;6.996;2022-07-18T14:31:07;33.70;43.90
46976;DHT22;32724;51.094;6.996;2022-07-18T14:33:32;33.80;43.70
46976;DHT22;32724;51.094;6.996;2022-07-18T14:35:58;33.70;42.40
46976;DHT22;32724;51.094;6.996;2022-07-18T14:38:23;33.70;42.60
46976;DHT22;32724;51.094;6.996;2022-07-18T14:40:49;33.70;43.80
46976;DHT22;32724;51.094;6.996;2022-07-18T14:43:14;33.70;43.70
46976;DHT22;32724;51.094;6.996;2022-07-18T14:45:41;33.70;43.20
46976;DHT22;32724;51.094;6.996;2022-07-18T14:48:06;33.50;42.90
46976;DHT22;32724;51.094;6.996;2022-07-18T14:50:32;33.60;45.20
46976;DHT22;32724;51.094;6.996;2022-07-18T14:52:57;33.70;43.40
46976;DHT22;32724;51.094;6.996;2022-07-18T14:55:23;33.80;43.50
46976;DHT22;32724;51.094;6.996;2022-07-18T14:57:48;33.70;43.70
46976;DHT22;32724;51.094;6.996;2022-07-18T15:00:14;33.50;43.10
46976;DHT22;32724;51.094;6.996;2022-07-18T15:02:39;33.40;43.40
46976;DHT22;32724;51.094;6.996;2022-07-18T15:05:05;33.50;44.40
46976;DHT22;32724;51.094;6.996;2022-07-18T15:07:31;33.50;42.90
46976;DHT22;32724;51.094;6.996;2022-07-18T15:09:57;33.60;43.40
46976;DHT22;32724;51.094;6.996;2022-07-18T15:12:23;33.70;43.80
46976;DHT22;32724;51.094;6.996;2022-07-18T15:14:48;33.80;44.00
46976;DHT22;32724;51.094;6.996;2022-07-18T15:17:14;33.80;43.80
46976;DHT22;32724;51.094;6.996;2022-07-18T15:19:39;33.90;44.20
46976;DHT22;32724;51.094;6.996;2022-07-18T15:22:05;33.90;42.90
46976;DHT22;32724;51.094;6.996;2022-07-18T15:24:31;33.90;42.80
46976;DHT22;32724;51.094;6.996;2022-07-18T15:26:57;33.90;43.80
46976;DHT22;32724;51.094;6.996;2022-07-18T15:29:22;33.80;43.30
46976;DHT22;32724;51.094;6.996;2022-07-18T15:31:48;33.80;43.00
46976;DHT22;32724;51.094;6.996;2022-07-18T15:34:13;33.70;42.40
46976;DHT22;32724;51.094;6.996;2022-07-18T15:36:39;33.50;43.70
46976;DHT22;32724;51.094;6.996;2022-07-18T15:39:04;33.40;43.00
46976;DHT22;32724;51.094;6.996;2022-07-18T15:41:30;33.20;42.30
46976;DHT22;32724;51.094;6.996;2022-07-18T15:43:56;33.20;43.30
46976;DHT22;32724;51.094;6.996;2022-07-18T15:46:21;33.20;43.70
46976;DHT22;32724;51.094;6.996;2022-07-18T15:48:46;33.20;43.30
46976;DHT22;32724;51.094;6.996;2022-07-18T15:51:12;33.20;43.70
46976;DHT22;32724;51.094;6.996;2022-07-18T15:53:39;33.20;44.00
46976;DHT22;32724;51.094;6.996;2022-07-18T15:56:05;33.40;43.50
46976;DHT22;32724;51.094;6.996;2022-07-18T15:58:30;33.40;43.90
46976;DHT22;32724;51.094;6.996;2022-07-18T16:00:56;33.60;43.40
46976;DHT22;32724;51.094;6.996;2022-07-18T16:03:22;33.70;43.30